Time;durP1;ratioP1;P1;durP2;ratioP2;P2;SDS_P1;SDS_P2;PMS_P1;PMS_P2;Temp;Humidity;BMP_temperature;BMP_pressure;BME280_temperature;BME280_humidity;BME280_pressure;Samples;Min_cycle;Max_cycle;Signal;HPM_P1;HPM_P2
2022/03/11 00:01:00;;;;;;;19.43;11.67;;;2.80;99.90;;;;;;5011282;28;20449;-72
2022/03/11 00:03:28;;;;;;;19.77;11.20;;;2.90;99.90;;;;;;5009849;28;20491;-72
2022/03/11 00:05:54;;;;;;;26.20;11.33;;;2.80;99.90;;;;;;5010837;28;20994;-72
2022/03/11 00:08:21;;;;;;;18.80;12.00;;;2.80;99.90;;;;;;5010638;28;20450;-72
2022/03/11 00:10:48;;;;;;;25.63;11.40;;;2.80;99.90;;;;;;5011495;28;20459;-72
2022/03/11 00:13:14;;;;;;;24.40;11.20;;;2.70;99.90;;;;;;5004509;28;20509;-72
2022/03/11 00:15:42;;;;;;;25.10;11.90;;;2.70;99.90;;;;;;5003965;28;20509;-72
2022/03/11 00:18:08;;;;;;;20.97;11.33;;;2.70;99.90;;;;;;5004812;28;20525;-72
2022/03/11 00:20:36;;;;;;;22.43;10.90;;;2.70;99.90;;;;;;5010237;28;20509;-73
2022/03/11 00:23:03;;;;;;;25.87;11.87;;;2.60;99.90;;;;;;5011142;28;20450;-72
2022/03/11 00:25:31;;;;;;;18.90;11.50;;;2.60;99.90;;;;;;5010285;28;20458;-72
2022/03/11 00:27:59;;;;;;;25.60;11.33;;;2.60;99.90;;;;;;5010751;28;20825;-72
2022/03/11 00:30:26;;;;;;;22.77;12.17;;;2.50;99.90;;;;;;5003467;28;20454;-72
2022/03/11 00:32:52;;;;;;;22.40;12.00;;;2.50;99.90;;;;;;5010627;28;20458;-72
2022/03/11 00:35:21;;;;;;;20.63;11.23;;;2.50;99.90;;;;;;5009537;28;20461;-72
2022/03/11 00:37:49;;;;;;;19.83;10.50;;;2.40;99.90;;;;;;5010694;28;21557;-72
2022/03/11 00:40:16;;;;;;;25.97;11.43;;;2.40;99.90;;;;;;5010447;28;20528;-73
2022/03/11 00:42:43;;;;;;;20.27;11.07;;;2.40;99.90;;;;;;5008722;28;20462;-72
2022/03/11 00:45:10;;;;;;;20.63;11.50;;;2.30;99.90;;;;;;5010601;28;20512;-72
2022/03/11 00:47:37;;;;;;;20.33;11.40;;;2.30;99.90;;;;;;5010940;28;20528;-72
2022/03/11 00:50:05;;;;;;;20.60;10.57;;;2.30;99.90;;;;;;5005615;28;20459;-73
2022/03/11 00:52:32;;;;;;;19.40;11.17;;;2.20;99.90;;;;;;5010556;28;20525;-73
2022/03/11 00:55:00;;;;;;;20.43;11.20;;;2.20;99.90;;;;;;5011036;28;20458;-72
2022/03/11 00:57:26;;;;;;;20.93;12.13;;;2.20;99.90;;;;;;5010481;28;20532;-72
2022/03/11 00:59:53;;;;;;;21.63;11.63;;;2.10;99.90;;;;;;5011259;28;20454;-73
2022/03/11 01:02:20;;;;;;;21.20;11.20;;;2.10;99.90;;;;;;5011093;28;20913;-72
2022/03/11 01:04:49;;;;;;;25.90;11.80;;;2.00;99.90;;;;;;5010319;28;20524;-72
2022/03/11 01:07:16;;;;;;;20.70;12.23;;;2.00;99.90;;;;;;5010099;28;20929;-73
2022/03/11 01:09:42;;;;;;;23.17;12.33;;;2.00;99.90;;;;;;5000481;28;20446;-73
2022/03/11 01:12:11;;;;;;;25.03;12.23;;;2.00;99.90;;;;;;5010593;28;20854;-73
2022/03/11 01:14:37;;;;;;;21.97;12.13;;;2.00;99.90;;;;;;5009888;28;20454;-73
2022/03/11 01:17:04;;;;;;;23.97;12.70;;;1.90;99.90;;;;;;5010804;28;20532;-73
2022/03/11 01:19:31;;;;;;;24.33;12.57;;;1.90;99.90;;;;;;5010860;28;20465;-73
2022/03/11 01:21:58;;;;;;;28.33;11.97;;;1.80;99.90;;;;;;5010868;28;20493;-73
2022/03/11 01:24:24;;;;;;;22.43;12.17;;;1.80;99.90;;;;;;5010140;28;20454;-73
2022/03/11 01:26:51;;;;;;;20.27;11.17;;;1.80;99.90;;;;;;5010277;28;20505;-73
2022/03/11 01:29:19;;;;;;;28.57;11.47;;;1.80;99.90;;;;;;5010096;28;20459;-73
2022/03/11 01:31:46;;;;;;;27.53;12.33;;;1.70;99.90;;;;;;5010786;28;20451;-73
2022/03/11 01:34:13;;;;;;;19.37;11.90;;;1.70;99.90;;;;;;5010018;28;20470;-72
2022/03/11 01:36:39;;;;;;;24.20;12.37;;;1.70;99.90;;;;;;5009197;28;20848;-73
2022/03/11 01:39:06;;;;;;;24.80;12.30;;;1.70;99.90;;;;;;5009970;28;20457;-73
2022/03/11 01:41:33;;;;;;;26.60;12.53;;;1.60;99.90;;;;;;5009760;28;20508;-72
2022/03/11 01:44:02;;;;;;;21.43;11.60;;;1.60;99.90;;;;;;5009731;28;20874;-73
2022/03/11 01:46:31;;;;;;;28.63;12.60;;;1.60;99.90;;;;;;5009984;28;20498;-73
2022/03/11 01:48:58;;;;;;;22.43;11.83;;;1.60;99.90;;;;;;5010364;28;20462;-73
2022/03/11 01:51:27;;;;;;;29.13;12.73;;;1.60;99.90;;;;;;5010048;28;20513;-72
2022/03/11 01:53:54;;;;;;;26.43;12.00;;;1.50;99.90;;;;;;5009976;28;20465;-73
2022/03/11 01:56:21;;;;;;;24.70;13.30;;;1.50;99.90;;;;;;5009712;28;20474;-72
2022/03/11 01:58:49;;;;;;;26.37;12.97;;;1.50;99.90;;;;;;5010574;28;20473;-72
2022/03/11 02:01:16;;;;;;;24.67;12.00;;;1.40;99.90;;;;;;5009436;28;20465;-72
2022/03/11 02:03:44;;;;;;;47.27;14.23;;;1.40;99.90;;;;;;5009645;28;20532;-73
2022/03/11 02:06:13;;;;;;;24.90;12.13;;;1.40;99.90;;;;;;5009969;28;20478;-72
2022/03/11 02:08:40;;;;;;;28.47;13.50;;;1.40;99.90;;;;;;5009045;28;20532;-72
2022/03/11 02:11:07;;;;;;;29.23;13.00;;;1.40;99.90;;;;;;5010568;28;20453;-73
2022/03/11 02:13:45;;;;;;;29.33;13.07;;;1.50;99.90;;;;;;5008792;28;20896;-72
2022/03/11 02:16:14;;;;;;;27.57;14.40;;;1.50;99.90;;;;;;5009445;28;20609;-73
2022/03/11 02:18:40;;;;;;;26.83;13.63;;;1.60;99.90;;;;;;5009880;28;20504;-73
2022/03/11 02:21:10;;;;;;;26.43;13.70;;;1.70;99.90;;;;;;5009767;28;20454;-73
2022/03/11 02:23:43;;;;;;;33.57;15.50;;;1.90;99.90;;;;;;5009488;28;20454;-72
2022/03/11 02:26:10;;;;;;;31.63;15.67;;;2.00;99.90;;;;;;5009952;28;20617;-73
2022/03/11 02:28:37;;;;;;;31.37;14.93;;;2.20;99.90;;;;;;5009236;28;20509;-72
2022/03/11 02:31:03;;;;;;;33.10;15.40;;;2.30;99.90;;;;;;5009956;28;20871;-72
2022/03/11 02:33:30;;;;;;;37.03;14.40;;;2.50;99.90;;;;;;5007727;28;20458;-72
2022/03/11 02:35:57;;;;;;;35.87;14.83;;;2.60;99.90;;;;;;5009512;28;20529;-73
2022/03/11 02:38:24;;;;;;;31.20;15.27;;;2.60;99.90;;;;;;5009634;28;20454;-73
2022/03/11 02:40:52;;;;;;;46.07;14.53;;;2.70;99.90;;;;;;5010051;28;20466;-72
2022/03/11 02:43:18;;;;;;;29.13;14.57;;;2.60;99.90;;;;;;5006020;28;20501;-73
2022/03/11 02:45:45;;;;;;;28.27;15.33;;;2.70;99.90;;;;;;5009393;28;20459;-73
2022/03/11 02:48:12;;;;;;;30.87;15.93;;;2.70;99.90;;;;;;5009497;28;20902;-72
2022/03/11 02:50:39;;;;;;;44.40;15.60;;;2.70;99.90;;;;;;5009396;28;20866;-72
2022/03/11 02:53:06;;;;;;;38.67;16.43;;;2.60;99.90;;;;;;5005445;28;20458;-72
2022/03/11 02:55:33;;;;;;;31.77;15.80;;;2.60;99.90;;;;;;5011191;28;20517;-72
2022/03/11 02:58:01;;;;;;;33.20;16.53;;;2.60;99.90;;;;;;5013218;28;21012;-73
2022/03/11 03:00:27;;;;;;;33.60;16.40;;;2.60;99.90;;;;;;5012807;28;20457;-73
2022/03/11 03:02:54;;;;;;;37.50;16.43;;;2.60;99.90;;;;;;5006805;28;20481;-72
2022/03/11 03:05:20;;;;;;;32.73;16.70;;;2.60;99.90;;;;;;5012575;28;20469;-72
2022/03/11 03:07:47;;;;;;;32.00;16.37;;;2.60;99.90;;;;;;5013350;28;20486;-72
2022/03/11 03:10:14;;;;;;;35.10;17.40;;;2.50;99.90;;;;;;5012698;28;20458;-73
2022/03/11 03:12:42;;;;;;;35.77;17.63;;;2.50;99.90;;;;;;5011636;28;20496;-72
2022/03/11 03:15:10;;;;;;;34.20;16.20;;;2.40;99.90;;;;;;5011738;28;20458;-73
2022/03/11 03:17:37;;;;;;;30.67;16.70;;;2.40;99.90;;;;;;5012106;28;20520;-73
2022/03/11 03:20:05;;;;;;;33.43;16.90;;;2.40;99.90;;;;;;5012816;28;20462;-73
2022/03/11 03:22:32;;;;;;;30.20;15.50;;;2.40;99.90;;;;;;5012517;28;20453;-72
2022/03/11 03:24:59;;;;;;;35.83;16.77;;;2.40;99.90;;;;;;5012462;28;20454;-73
2022/03/11 03:27:26;;;;;;;37.93;16.60;;;2.50;99.90;;;;;;5012408;28;20494;-73
2022/03/11 03:29:53;;;;;;;35.00;18.40;;;2.40;99.90;;;;;;5011667;28;20462;-73
2022/03/11 03:32:21;;;;;;;36.87;18.70;;;2.40;99.90;;;;;;5011498;28;20900;-72
2022/03/11 03:34:47;;;;;;;35.03;17.67;;;2.40;99.90;;;;;;5012581;28;20508;-73
2022/03/11 03:37:14;;;;;;;42.40;18.27;;;2.30;99.90;;;;;;5011748;28;20474;-72
2022/03/11 03:39:42;;;;;;;35.00;16.60;;;2.30;99.90;;;;;;5004026;28;20454;-71
2022/03/11 03:42:10;;;;;;;44.13;18.63;;;2.30;99.90;;;;;;5012220;28;20458;-72
2022/03/11 03:44:36;;;;;;;37.00;18.57;;;2.30;99.90;;;;;;5011656;28;20450;-71
2022/03/11 03:47:04;;;;;;;37.60;18.10;;;2.20;99.90;;;;;;5012312;28;20491;-71
2022/03/11 03:49:32;;;;;;;38.57;18.37;;;2.20;99.90;;;;;;5008682;28;20465;-71
2022/03/11 03:51:58;;;;;;;38.23;18.10;;;2.10;99.90;;;;;;5012045;28;20466;-71
2022/03/11 03:54:25;;;;;;;38.80;18.03;;;2.10;99.90;;;;;;5011817;28;20505;-71
2022/03/11 03:56:52;;;;;;;39.70;18.17;;;2.10;99.90;;;;;;5012253;28;20529;-71
2022/03/11 03:59:19;;;;;;;41.30;17.60;;;2.10;99.90;;;;;;5010957;28;20572;-71
2022/03/11 04:01:46;;;;;;;37.43;18.57;;;1.90;99.90;;;;;;5012058;28;20589;-71
2022/03/11 04:04:13;;;;;;;38.93;18.50;;;1.80;99.90;;;;;;5011612;28;20485;-71
2022/03/11 04:06:42;;;;;;;39.47;18.00;;;1.80;99.90;;;;;;5011758;28;20896;-71
2022/03/11 04:09:09;;;;;;;39.07;17.93;;;1.70;99.90;;;;;;5011349;28;20973;-71
2022/03/11 04:11:36;;;;;;;38.00;19.80;;;1.60;99.90;;;;;;5011150;28;20458;-71
2022/03/11 04:14:03;;;;;;;34.87;17.60;;;1.60;99.90;;;;;;5011577;28;20462;-71
2022/03/11 04:16:30;;;;;;;37.80;19.10;;;1.50;99.90;;;;;;5010821;28;21022;-71
2022/03/11 04:18:57;;;;;;;43.90;19.37;;;1.40;99.90;;;;;;5011929;28;20501;-71
2022/03/11 04:21:24;;;;;;;35.00;17.13;;;1.30;99.90;;;;;;5011469;28;20461;-71
2022/03/11 04:23:52;;;;;;;41.23;18.70;;;1.30;99.90;;;;;;5011795;28;20504;-71
2022/03/11 04:26:19;;;;;;;39.50;19.63;;;1.20;99.90;;;;;;5011063;28;20528;-71
2022/03/11 04:28:46;;;;;;;37.23;18.97;;;1.20;99.90;;;;;;5011189;28;20485;-71
2022/03/11 04:31:13;;;;;;;33.97;18.10;;;1.10;99.90;;;;;;5011446;28;20600;-71
2022/03/11 04:33:42;;;;;;;37.33;17.67;;;1.20;99.90;;;;;;5011447;28;20454;-71
2022/03/11 04:36:09;;;;;;;37.80;18.57;;;1.10;99.90;;;;;;5011602;28;20486;-71
2022/03/11 04:38:36;;;;;;;42.33;18.43;;;1.00;99.90;;;;;;5009424;28;20462;-71
2022/03/11 04:41:04;;;;;;;37.50;18.63;;;1.00;99.90;;;;;;5010996;28;20450;-71
2022/03/11 04:43:30;;;;;;;39.93;19.07;;;1.00;99.90;;;;;;5010968;28;20914;-71
2022/03/11 04:45:57;;;;;;;43.70;20.10;;;1.00;99.90;;;;;;5011113;28;20540;-71
2022/03/11 04:48:24;;;;;;;39.77;19.00;;;0.90;99.90;;;;;;5009070;28;20486;-71
2022/03/11 04:50:51;;;;;;;37.50;19.67;;;0.90;99.90;;;;;;5004865;28;20887;-71
2022/03/11 04:53:18;;;;;;;44.60;20.10;;;0.90;99.90;;;;;;5010528;28;20809;-71
2022/03/11 04:55:44;;;;;;;38.47;19.90;;;0.80;99.90;;;;;;5010938;28;20978;-71
2022/03/11 04:58:12;;;;;;;37.40;18.90;;;0.90;99.90;;;;;;5010454;28;20451;-71
2022/03/11 05:00:39;;;;;;;43.63;19.93;;;0.80;99.90;;;;;;5010985;28;20501;-71
2022/03/11 05:03:06;;;;;;;38.93;18.37;;;0.80;99.90;;;;;;5010556;28;20870;-71
2022/03/11 05:05:32;;;;;;;45.73;19.40;;;0.80;99.90;;;;;;5010416;28;20466;-71
2022/03/11 05:08:00;;;;;;;44.03;19.90;;;0.80;99.90;;;;;;5010094;28;20544;-71
2022/03/11 05:10:27;;;;;;;41.90;19.87;;;0.70;99.90;;;;;;5011020;28;20827;-71
2022/03/11 05:12:54;;;;;;;38.13;20.00;;;0.70;99.90;;;;;;5010679;28;20454;-71
2022/03/11 05:15:24;;;;;;;42.07;20.43;;;0.70;99.90;;;;;;5009726;28;20488;-71
2022/03/11 05:17:51;;;;;;;38.10;19.60;;;0.70;99.90;;;;;;5010305;28;21002;-71
2022/03/11 05:20:17;;;;;;;48.47;21.10;;;0.70;99.90;;;;;;5010370;28;20532;-71
2022/03/11 05:22:44;;;;;;;36.70;18.90;;;0.90;99.90;;;;;;5010048;28;20500;-71
2022/03/11 05:25:11;;;;;;;43.17;19.43;;;1.00;99.90;;;;;;5010388;28;20517;-71
2022/03/11 05:27:38;;;;;;;40.87;19.93;;;1.10;99.90;;;;;;5009880;28;20632;-71
2022/03/11 05:30:05;;;;;;;46.33;21.83;;;1.10;99.90;;;;;;5010486;28;20509;-71
2022/03/11 05:32:34;;;;;;;44.27;21.00;;;1.10;99.90;;;;;;5010500;28;20461;-71
2022/03/11 05:35:00;;;;;;;40.20;19.03;;;1.10;99.90;;;;;;5010139;28;20446;-71
2022/03/11 05:37:27;;;;;;;44.30;20.20;;;1.10;99.90;;;;;;5009565;28;20470;-71
2022/03/11 05:39:53;;;;;;;38.80;19.73;;;1.20;99.90;;;;;;5010313;28;20504;-71
2022/03/11 05:42:20;;;;;;;49.00;22.07;;;1.10;99.90;;;;;;5010366;28;20461;-71
2022/03/11 05:44:47;;;;;;;50.07;21.20;;;1.10;99.90;;;;;;5010045;28;20458;-71
2022/03/11 05:47:13;;;;;;;43.17;20.83;;;1.00;99.90;;;;;;5009821;28;20478;-71
2022/03/11 05:49:41;;;;;;;56.53;21.40;;;0.90;99.90;;;;;;5009971;28;20863;-71
2022/03/11 05:52:08;;;;;;;46.33;20.40;;;0.80;99.90;;;;;;5009994;28;20454;-71
2022/03/11 05:54:35;;;;;;;40.33;19.17;;;0.80;99.90;;;;;;5009452;28;20447;-71
2022/03/11 05:57:02;;;;;;;37.50;18.97;;;0.70;99.90;;;;;;5009925;28;20573;-71
2022/03/11 05:59:29;;;;;;;44.50;21.20;;;0.70;99.90;;;;;;5009971;28;20520;-71
2022/03/11 06:01:56;;;;;;;50.23;21.47;;;0.60;99.90;;;;;;5009441;28;20473;-71
2022/03/11 06:04:23;;;;;;;47.70;22.57;;;0.50;99.90;;;;;;5009415;28;20476;-71
2022/03/11 06:06:51;;;;;;;43.97;21.20;;;0.50;99.90;;;;;;5002797;28;20546;-71
2022/03/11 06:09:17;;;;;;;45.37;20.20;;;0.60;99.90;;;;;;5007135;28;20494;-71
2022/03/11 06:11:44;;;;;;;43.93;21.20;;;0.60;99.90;;;;;;5010000;28;20504;-71
2022/03/11 06:14:11;;;;;;;47.60;21.13;;;0.70;99.90;;;;;;5009562;28;20462;-71
2022/03/11 06:16:37;;;;;;;42.50;20.60;;;0.80;99.90;;;;;;5008996;28;20465;-71
2022/03/11 06:19:04;;;;;;;39.00;19.47;;;0.80;99.90;;;;;;5010052;28;20454;-71
2022/03/11 06:21:31;;;;;;;40.90;19.07;;;0.90;99.90;;;;;;5009635;28;20512;-71
2022/03/11 06:23:59;;;;;;;42.43;20.30;;;1.00;99.90;;;;;;5009321;28;20958;-71
2022/03/11 06:26:25;;;;;;;46.80;20.13;;;1.20;99.90;;;;;;5009236;28;20474;-71
2022/03/11 06:28:52;;;;;;;37.80;19.53;;;1.60;99.90;;;;;;5012833;28;21045;-71
2022/03/11 06:31:19;;;;;;;42.67;19.10;;;2.00;99.90;;;;;;5013689;28;20954;-71
2022/03/11 06:33:45;;;;;;;39.27;19.80;;;2.60;99.90;;;;;;5013471;28;20454;-71
2022/03/11 06:36:12;;;;;;;40.17;19.80;;;3.20;99.90;;;;;;5006779;28;20473;-71
2022/03/11 06:38:38;;;;;;;43.80;20.27;;;3.80;99.90;;;;;;5013290;28;20532;-71
2022/03/11 06:41:07;;;;;;;43.83;20.40;;;4.50;99.90;;;;;;5013524;28;20890;-71
2022/03/11 06:43:35;;;;;;;40.27;21.33;;;5.10;99.90;;;;;;5013138;28;20458;-72
2022/03/11 06:46:01;;;;;;;39.87;21.10;;;5.60;99.90;;;;;;5013344;28;21002;-72
2022/03/11 06:48:28;;;;;;;35.17;17.97;;;6.10;99.90;;;;;;5013166;28;20478;-72
2022/03/11 06:50:55;;;;;;;43.43;19.53;;;6.50;99.90;;;;;;5013223;28;20481;-71
2022/03/11 06:53:25;;;;;;;36.20;17.90;;;6.80;99.90;;;;;;5012630;28;20863;-71
2022/03/11 06:55:52;;;;;;;34.30;17.80;;;6.90;99.90;;;;;;5012522;28;20481;-71
2022/03/11 06:58:20;;;;;;;36.43;18.00;;;6.90;99.90;;;;;;5005206;28;20998;-71
2022/03/11 07:00:47;;;;;;;39.53;19.53;;;7.10;99.90;;;;;;5011149;28;20791;-73
2022/03/11 07:03:13;;;;;;;35.70;18.30;;;7.20;99.90;;;;;;5012544;28;20458;-72
2022/03/11 07:05:40;;;;;;;37.60;18.00;;;7.40;99.90;;;;;;5010332;28;20582;-73
2022/03/11 07:08:08;;;;;;;42.50;19.20;;;7.40;99.90;;;;;;5009166;28;20536;-73
2022/03/11 07:10:34;;;;;;;35.07;17.50;;;7.40;99.90;;;;;;5012779;28;20466;-73
2022/03/11 07:13:01;;;;;;;33.33;18.63;;;7.50;99.90;;;;;;5009323;28;21044;-72
2022/03/11 07:15:30;;;;;;;30.97;16.50;;;8.00;99.90;;;;;;4998904;28;21008;-73
2022/03/11 07:17:56;;;;;;;29.73;16.00;;;8.40;99.90;;;;;;4952063;28;20496;-73
2022/03/11 07:20:23;;;;;;;32.50;16.40;;;8.60;99.90;;;;;;4970500;28;20896;-73
2022/03/11 07:22:50;;;;;;;29.97;17.27;;;9.00;99.60;;;;;;4974956;28;20819;-73
2022/03/11 07:25:17;;;;;;;26.77;15.77;;;9.50;99.10;;;;;;4974626;28;20463;-73
2022/03/11 07:27:45;;;;;;;26.67;14.63;;;9.70;97.20;;;;;;4973192;28;20939;-73
2022/03/11 07:30:12;;;;;;;31.33;15.03;;;9.50;95.40;;;;;;4974355;28;22118;-72
2022/03/11 07:32:40;;;;;;;26.93;14.53;;;9.10;94.90;;;;;;4973952;28;20482;-73
2022/03/11 07:35:11;;;;;;;30.63;16.40;;;8.70;95.70;;;;;;4975027;28;20941;-73
2022/03/11 07:37:39;;;;;;;30.60;16.23;;;8.40;95.70;;;;;;4973189;28;20472;-73
2022/03/11 07:40:06;;;;;;;30.40;15.93;;;8.20;96.40;;;;;;4973031;28;20466;-73
2022/03/11 07:42:33;;;;;;;30.30;16.37;;;8.00;95.70;;;;;;4974451;28;20974;-73
2022/03/11 07:45:02;;;;;;;29.47;15.70;;;7.70;96.60;;;;;;4973621;28;20919;-73
2022/03/11 07:47:29;;;;;;;30.60;14.40;;;7.20;97.00;;;;;;4973158;28;20487;-73
2022/03/11 07:49:58;;;;;;;22.93;12.30;;;6.80;97.00;;;;;;4973030;28;20906;-73
2022/03/11 07:52:25;;;;;;;23.73;12.60;;;6.60;96.80;;;;;;4977958;28;20452;-73
2022/03/11 07:54:52;;;;;;;25.93;12.60;;;6.40;97.20;;;;;;4972457;28;20540;-73
2022/03/11 07:57:19;;;;;;;23.90;13.20;;;6.40;97.30;;;;;;4970551;28;20558;-73
2022/03/11 07:59:46;;;;;;;26.80;13.27;;;6.20;97.40;;;;;;4972567;28;20568;-72
2022/03/11 08:02:14;;;;;;;28.60;13.30;;;6.10;97.30;;;;;;4974416;28;20460;-73
2022/03/11 08:04:42;;;;;;;24.63;12.80;;;6.00;97.70;;;;;;4975107;28;20463;-73
2022/03/11 08:07:11;;;;;;;22.00;12.50;;;5.80;98.10;;;;;;4978574;28;20494;-73
2022/03/11 08:09:39;;;;;;;27.07;11.90;;;5.80;98.40;;;;;;4971881;28;20499;-74
2022/03/11 08:12:06;;;;;;;23.10;12.33;;;5.70;97.60;;;;;;4973255;28;20445;-73
2022/03/11 08:14:33;;;;;;;28.70;13.70;;;5.60;97.70;;;;;;4975741;28;20505;-73
2022/03/11 08:17:00;;;;;;;22.37;12.63;;;5.50;98.10;;;;;;4974298;28;20545;-72
2022/03/11 08:19:27;;;;;;;20.13;10.93;;;5.60;97.70;;;;;;4970073;28;20691;-73
2022/03/11 08:21:54;;;;;;;23.80;11.90;;;5.60;96.80;;;;;;4966438;28;20460;-74
2022/03/11 08:24:22;;;;;;;24.67;12.10;;;5.70;97.20;;;;;;4971827;28;20467;-73
2022/03/11 08:26:49;;;;;;;26.27;11.93;;;5.80;98.10;;;;;;4976868;28;20464;-73
2022/03/11 08:29:16;;;;;;;21.00;12.67;;;5.90;97.00;;;;;;4978121;28;21134;-73
2022/03/11 08:31:43;;;;;;;23.53;11.43;;;6.00;96.70;;;;;;4971082;28;20479;-73
2022/03/11 08:34:10;;;;;;;20.70;11.87;;;5.90;96.80;;;;;;4972695;28;20452;-76
2022/03/11 08:36:38;;;;;;;21.23;12.43;;;6.10;97.40;;;;;;4974343;28;20475;-75
2022/03/11 08:39:07;;;;;;;25.03;12.43;;;6.30;97.30;;;;;;4972642;28;20506;-75
2022/03/11 08:41:35;;;;;;;23.10;11.40;;;6.70;96.90;;;;;;4971043;28;20552;-76
2022/03/11 08:44:03;;;;;;;24.07;12.03;;;6.80;95.60;;;;;;4971979;28;20468;-76
2022/03/11 08:46:30;;;;;;;21.03;11.73;;;6.70;96.10;;;;;;4969902;28;20511;-75
2022/03/11 08:48:57;;;;;;;24.20;11.47;;;6.50;95.60;;;;;;4976864;28;20587;-75
2022/03/11 08:51:23;;;;;;;22.97;12.33;;;6.40;96.20;;;;;;4969383;28;20463;-76
2022/03/11 08:53:51;;;;;;;20.27;12.23;;;6.40;96.20;;;;;;4970097;28;20456;-75
2022/03/11 08:56:21;;;;;;;25.90;11.43;;;6.60;95.70;;;;;;4972332;28;20538;-75
2022/03/11 08:58:50;;;;;;;17.97;10.40;;;6.70;95.80;;;;;;4976359;28;20452;-75
2022/03/11 09:01:17;;;;;;;21.53;11.30;;;6.80;95.30;;;;;;4973528;28;20484;-75
2022/03/11 09:03:44;;;;;;;25.97;10.60;;;6.80;94.90;;;;;;4970183;28;20526;-75
2022/03/11 09:06:11;;;;;;;17.83;10.87;;;6.70;95.00;;;;;;4970900;28;20479;-75
2022/03/11 09:08:38;;;;;;;17.00;10.73;;;6.90;95.40;;;;;;4971208;28;20515;-76
2022/03/11 09:11:05;;;;;;;22.00;11.13;;;7.10;95.50;;;;;;4970949;28;20828;-76
2022/03/11 09:13:32;;;;;;;19.50;11.17;;;7.10;94.50;;;;;;4969903;28;20460;-74
2022/03/11 09:16:00;;;;;;;20.77;13.17;;;7.20;94.40;;;;;;4973691;28;20495;-74
2022/03/11 09:18:27;;;;;;;19.50;10.93;;;7.20;94.60;;;;;;4971071;28;20463;-74
2022/03/11 09:20:55;;;;;;;21.17;11.03;;;7.20;94.70;;;;;;4970465;28;20540;-74
2022/03/11 09:23:22;;;;;;;15.83;10.20;;;7.10;93.80;;;;;;4970311;28;20499;-74
2022/03/11 09:25:50;;;;;;;22.93;10.83;;;7.00;93.90;;;;;;4970657;28;20448;-74
2022/03/11 09:28:17;;;;;;;20.50;11.13;;;6.80;94.30;;;;;;4970294;28;20942;-74
2022/03/11 09:30:43;;;;;;;18.43;11.50;;;6.80;94.50;;;;;;4969295;28;20487;-75
2022/03/11 09:33:11;;;;;;;19.00;11.00;;;6.90;94.40;;;;;;4970027;28;20488;-73
2022/03/11 09:35:38;;;;;;;18.57;10.93;;;7.10;94.30;;;;;;4969112;28;20493;-73
2022/03/11 09:38:05;;;;;;;18.03;10.63;;;7.30;94.60;;;;;;4978437;28;20799;-73
2022/03/11 09:40:33;;;;;;;18.83;10.20;;;7.20;93.80;;;;;;4974815;28;20828;-73
2022/03/11 09:43:01;;;;;;;20.00;11.03;;;7.30;94.00;;;;;;4970716;28;20535;-72
2022/03/11 09:45:29;;;;;;;15.50;9.43;;;7.40;93.40;;;;;;4970601;28;20470;-73
2022/03/11 09:47:56;;;;;;;22.23;10.23;;;7.50;93.20;;;;;;4971009;28;20452;-71
2022/03/11 09:50:24;;;;;;;20.90;10.90;;;7.40;93.70;;;;;;4968743;28;20574;-73
2022/03/11 09:52:52;;;;;;;23.25;10.80;;;7.40;93.00;;;;;;4970003;28;20881;-72
2022/03/11 09:55:19;;;;;;;20.67;10.53;;;7.40;93.20;;;;;;4968797;28;20542;-71
2022/03/11 09:57:46;;;;;;;15.97;9.53;;;7.60;93.20;;;;;;4970844;28;20475;-71
2022/03/11 10:00:13;;;;;;;17.50;10.37;;;7.40;93.40;;;;;;4969670;28;20452;-72
2022/03/11 10:02:42;;;;;;;22.17;10.80;;;7.40;93.60;;;;;;4970618;28;20452;-71
2022/03/11 10:05:09;;;;;;;24.27;11.30;;;7.50;93.10;;;;;;4969381;28;20554;-70
2022/03/11 10:07:37;;;;;;;18.43;9.60;;;7.60;92.90;;;;;;4969625;28;20469;-70
2022/03/11 10:10:16;;;;;;;19.80;10.60;;;7.70;92.70;;;;;;4969661;28;20914;-70
2022/03/11 10:12:45;;;;;;;25.70;10.80;;;7.60;92.50;;;;;;4968604;28;20455;-69
2022/03/11 10:15:13;;;;;;;19.53;10.37;;;7.70;93.00;;;;;;4969593;28;20471;-70
2022/03/11 10:17:41;;;;;;;16.60;10.13;;;7.60;92.20;;;;;;4976910;28;20472;-70
2022/03/11 10:20:10;;;;;;;15.90;10.13;;;7.60;92.40;;;;;;4970560;28;20456;-69
2022/03/11 10:22:40;;;;;;;19.97;11.20;;;7.60;92.40;;;;;;4968578;28;20456;-70
2022/03/11 10:25:09;;;;;;;19.60;11.63;;;7.80;92.60;;;;;;4969135;28;20463;-71
2022/03/11 10:27:54;;;;;;;17.30;10.30;;;8.10;92.40;;;;;;4970125;28;20480;-70
2022/03/11 10:30:22;;;;;;;15.27;9.83;;;8.30;91.70;;;;;;4970196;28;20515;-70
2022/03/11 10:32:50;;;;;;;17.80;10.70;;;8.40;92.40;;;;;;4971050;28;20455;-70
2022/03/11 10:35:18;;;;;;;16.43;10.07;;;8.50;91.80;;;;;;4969787;28;20503;-72
2022/03/11 10:37:59;;;;;;;16.60;9.80;;;8.40;91.40;;;;;;4970908;28;21038;-73
2022/03/11 10:40:26;;;;;;;16.03;10.00;;;8.20;91.40;;;;;;4970549;28;20456;-72
2022/03/11 10:43:09;;;;;;;15.50;10.00;;;8.30;91.60;;;;;;4968024;28;20458;-72
2022/03/11 10:45:45;;;;;;;16.73;10.00;;;8.50;91.80;;;;;;4970998;28;20448;-72
2022/03/11 10:48:11;;;;;;;28.80;11.50;;;8.80;91.40;;;;;;4970903;28;20448;-72
2022/03/11 10:50:39;;;;;;;19.00;10.40;;;8.90;91.50;;;;;;4969776;28;20504;-72
2022/03/11 10:53:08;;;;;;;16.37;9.70;;;8.90;90.80;;;;;;4969919;28;20467;-70
2022/03/11 10:55:38;;;;;;;18.20;10.00;;;8.90;90.60;;;;;;4968610;28;20539;-70
2022/03/11 10:58:06;;;;;;;21.03;9.97;;;8.90;90.70;;;;;;4969456;28;20452;-71
2022/03/11 11:00:35;;;;;;;21.40;11.27;;;9.10;90.70;;;;;;4968510;28;20459;-70
2022/03/11 11:03:03;;;;;;;17.80;10.23;;;9.20;90.80;;;;;;4966430;28;20471;-70
2022/03/11 11:05:31;;;;;;;22.27;9.80;;;9.20;90.00;;;;;;4971290;28;20531;-69
2022/03/11 11:07:59;;;;;;;14.60;9.73;;;9.20;90.20;;;;;;4972404;28;20495;-70
2022/03/11 11:10:31;;;;;;;21.20;10.87;;;9.20;90.30;;;;;;4969795;28;20563;-70
2022/03/11 11:12:58;;;;;;;19.47;11.13;;;9.30;90.40;;;;;;4970768;28;20460;-70
2022/03/11 11:15:25;;;;;;;19.90;11.00;;;9.40;90.40;;;;;;4972282;28;20798;-70
2022/03/11 11:17:53;;;;;;;17.97;10.40;;;9.30;90.20;;;;;;4977228;28;20491;-70
2022/03/11 11:20:23;;;;;;;16.07;9.80;;;9.10;89.90;;;;;;4973059;28;20853;-69
2022/03/11 11:22:55;;;;;;;22.13;10.10;;;9.20;90.50;;;;;;4972400;28;20486;-69
2022/03/11 11:25:24;;;;;;;18.33;10.57;;;9.30;89.60;;;;;;4973745;28;20456;-69
2022/03/11 11:27:52;;;;;;;17.73;10.70;;;9.40;89.80;;;;;;4973652;28;20478;-70
2022/03/11 11:30:21;;;;;;;18.03;10.30;;;9.70;89.30;;;;;;4975297;28;20476;-70
2022/03/11 11:32:49;;;;;;;20.17;10.90;;;9.60;89.50;;;;;;4976030;28;20844;-69
2022/03/11 11:35:30;;;;;;;19.60;11.00;;;9.60;88.40;;;;;;4972805;28;20456;-69
2022/03/11 11:37:59;;;;;;;20.13;9.87;;;9.50;88.40;;;;;;4975275;28;21031;-69
2022/03/11 11:40:28;;;;;;;16.63;10.17;;;9.60;89.40;;;;;;4973561;28;20448;-70
2022/03/11 11:43:27;;;;;;;16.73;9.80;;;9.70;89.30;;;;;;4977074;28;20467;-74
2022/03/11 11:45:58;;;;;;;20.63;10.82;;;9.90;88.50;;;;;;4974636;28;21101;-76
2022/03/11 11:49:00;;;;;;;19.17;10.90;;;9.90;88.80;;;;;;4972300;28;20668;-72
2022/03/11 11:51:57;;;;;;;20.33;11.57;;;9.70;88.70;;;;;;4977041;28;21083;-75
2022/03/11 11:54:34;;;;;;;16.13;9.80;;;9.80;88.40;;;;;;4976541;28;20456;-74
2022/03/11 11:57:02;;;;;;;19.30;10.20;;;10.00;86.50;;;;;;4968431;28;20498;-74
2022/03/11 11:59:32;;;;;;;15.03;10.00;;;10.30;86.70;;;;;;4973252;28;20495;-75
2022/03/11 12:02:01;;;;;;;20.00;11.00;;;10.60;85.90;;;;;;4977345;28;20456;-75
2022/03/11 12:04:30;;;;;;;15.47;9.40;;;10.70;84.80;;;;;;4973680;28;20542;-74
2022/03/11 12:06:59;;;;;;;35.40;11.67;;;10.80;85.30;;;;;;4970587;28;20510;-75
2022/03/11 12:09:47;;;;;;;17.87;10.63;;;11.00;84.90;;;;;;4972095;28;21023;-75
2022/03/11 12:12:55;;;;;;;17.50;10.37;;;10.80;83.70;;;;;;4969702;28;20452;-75
2022/03/11 12:15:24;;;;;;;16.93;10.60;;;10.60;84.40;;;;;;4969443;28;20553;-74
2022/03/11 12:17:56;;;;;;;16.98;10.07;;;10.70;84.60;;;;;;4977028;28;21170;-72
2022/03/11 12:20:34;;;;;;;23.63;11.40;;;10.80;84.50;;;;;;4971794;28;20197;-70
2022/03/11 12:23:03;;;;;;;19.30;11.20;;;10.70;84.00;;;;;;4973898;28;20976;-70
2022/03/11 12:25:31;;;;;;;19.50;10.40;;;10.80;84.40;;;;;;4972852;28;20510;-70
2022/03/11 12:28:01;;;;;;;16.03;10.20;;;10.90;85.30;;;;;;4973695;28;20468;-70
2022/03/11 12:30:31;;;;;;;18.07;10.40;;;10.90;82.60;;;;;;4971301;28;20506;-70
2022/03/11 12:33:00;;;;;;;16.77;10.80;;;10.80;82.80;;;;;;4971979;28;20456;-71
2022/03/11 12:35:27;;;;;;;18.40;9.57;;;10.80;84.10;;;;;;4970022;28;20846;-70
2022/03/11 12:37:54;;;;;;;20.40;11.00;;;11.00;82.70;;;;;;4966482;28;20480;-69
2022/03/11 12:40:23;;;;;;;19.13;9.80;;;11.20;84.30;;;;;;4971609;28;20490;-71